createdAt,value
2022-07-26T00:02:56.213Z,26.97
2022-07-26T00:05:58.592Z,26.71
2022-07-26T00:09:00.507Z,26.67
2022-07-26T00:12:02.364Z,26.56
2022-07-26T00:15:05.776Z,27.14
2022-07-26T00:18:11.611Z,26.91
2022-07-26T00:21:14.195Z,26.94
2022-07-26T00:24:16.112Z,26.70
2022-07-26T00:27:17.980Z,26.71
2022-07-26T00:30:19.925Z,27.06
2022-07-26T00:33:21.730Z,26.41
2022-07-26T00:36:23.609Z,26.73
2022-07-26T00:39:25.504Z,27.88
2022-07-26T00:42:27.394Z,27.97
2022-07-26T00:45:29.288Z,27.09
2022-07-26T00:48:31.203Z,27.72
2022-07-26T00:51:33.065Z,27.07
2022-07-26T00:54:34.968Z,27.88
2022-07-26T00:57:36.883Z,27.52
2022-07-26T01:00:38.933Z,26.98
2022-07-26T01:03:40.882Z,26.74
2022-07-26T01:06:42.848Z,27.88
2022-07-26T01:09:44.780Z,26.34
2022-07-26T01:12:46.787Z,26.71
2022-07-26T01:15:48.990Z,26.42
2022-07-26T01:18:50.951Z,26.92
2022-07-26T01:21:52.770Z,26.39
2022-07-26T01:24:54.596Z,26.44
2022-07-26T01:27:56.526Z,26.98
2022-07-26T01:30:58.373Z,26.27
2022-07-26T01:34:00.199Z,26.34
2022-07-26T01:37:02.153Z,25.95
2022-07-26T01:40:04.207Z,26.58
2022-07-26T01:43:06.701Z,26.67
2022-07-26T01:46:08.786Z,26.01
2022-07-26T01:49:10.827Z,25.93
2022-07-26T01:52:12.749Z,25.83
2022-07-26T01:55:14.634Z,26.53
2022-07-26T01:58:16.519Z,26.78
2022-07-26T02:01:38.131Z,27.07
2022-07-26T02:04:58.918Z,26.15
2022-07-26T02:08:00.844Z,26.84
2022-07-26T02:11:04.167Z,26.82
2022-07-26T02:14:06.347Z,25.48
2022-07-26T02:17:08.511Z,25.41
2022-07-26T02:20:10.836Z,25.63
2022-07-26T02:23:12.813Z,26.00
2022-07-26T02:26:14.775Z,25.30
2022-07-26T02:29:16.662Z,26.27
2022-07-26T02:32:18.633Z,25.66
2022-07-26T02:35:20.519Z,25.00
2022-07-26T02:38:22.422Z,24.67
2022-07-26T02:41:26.892Z,25.53
2022-07-26T02:44:29.706Z,26.33
2022-07-26T02:47:32.952Z,25.80
2022-07-26T02:50:34.898Z,25.54
2022-07-26T02:53:36.706Z,24.98
2022-07-26T02:56:38.624Z,25.27
2022-07-26T02:59:40.631Z,24.95
2022-07-26T03:02:42.600Z,25.00
2022-07-26T03:05:44.759Z,24.97
2022-07-26T03:08:47.241Z,24.67
2022-07-26T03:11:49.085Z,24.96
2022-07-26T03:14:51.122Z,25.08
2022-07-26T03:17:52.986Z,25.73
2022-07-26T03:20:55.439Z,25.45
2022-07-26T03:23:57.610Z,25.90
2022-07-26T03:26:59.538Z,25.17
2022-07-26T03:30:01.378Z,25.74
2022-07-26T03:33:03.209Z,24.88
2022-07-26T03:36:05.424Z,25.25
2022-07-26T03:39:13.565Z,25.17
2022-07-26T03:42:16.386Z,24.64
2022-07-26T03:45:18.411Z,24.73
2022-07-26T03:48:20.219Z,25.57
2022-07-26T03:51:22.047Z,25.04
2022-07-26T03:54:23.992Z,24.71
2022-07-26T03:57:25.840Z,24.59
2022-07-26T04:00:30.277Z,25.17
2022-07-26T04:03:32.074Z,26.09
2022-07-26T04:06:33.991Z,25.11
2022-07-26T04:09:37.035Z,24.80
2022-07-26T04:12:38.934Z,24.74
2022-07-26T04:15:40.884Z,24.87
2022-07-26T04:18:42.943Z,25.11
2022-07-26T04:21:44.851Z,26.25
2022-07-26T04:24:46.699Z,26.38
2022-07-26T04:27:48.590Z,25.60
2022-07-26T04:30:50.449Z,25.32
2022-07-26T04:33:52.635Z,26.31
2022-07-26T04:36:54.452Z,26.08
2022-07-26T04:39:56.284Z,26.37
2022-07-26T04:42:58.119Z,25.99
2022-07-26T04:46:00.611Z,26.95
2022-07-26T04:49:02.761Z,27.33
2022-07-26T04:52:04.825Z,27.09
2022-07-26T04:55:07.087Z,27.12
2022-07-26T04:58:09.455Z,25.77
2022-07-26T05:01:11.584Z,25.20
2022-07-26T05:04:13.532Z,26.09
2022-07-26T05:07:15.364Z,26.56
2022-07-26T05:10:17.580Z,26.41
2022-07-26T05:13:29.871Z,26.89
2022-07-26T05:16:32.859Z,26.13
2022-07-26T05:19:34.730Z,26.46
2022-07-26T05:22:36.879Z,26.84
2022-07-26T05:25:39.281Z,28.17
2022-07-26T05:28:41.130Z,28.50
2022-07-26T05:31:43.101Z,29.06
2022-07-26T05:34:45.014Z,28.32
2022-07-26T05:37:47.048Z,28.51
2022-07-26T05:40:50.888Z,28.92
2022-07-26T05:43:52.983Z,28.88
2022-07-26T05:46:54.820Z,29.52
2022-07-26T05:49:56.759Z,31.18
2022-07-26T05:52:58.567Z,30.47
2022-07-26T05:56:00.486Z,30.85
2022-07-26T05:59:02.408Z,31.89
2022-07-26T06:02:04.285Z,32.73
2022-07-26T06:05:06.283Z,32.01
2022-07-26T06:08:08.171Z,32.39
2022-07-26T06:11:10.009Z,32.33
2022-07-26T06:14:12.316Z,32.86
2022-07-26T06:17:14.572Z,33.66
2022-07-26T06:20:16.618Z,33.91
2022-07-26T06:23:30.872Z,33.25
2022-07-26T06:26:37.031Z,33.66
2022-07-26T06:29:39.023Z,33.10
2022-07-26T06:32:44.717Z,31.55
2022-07-26T06:35:47.004Z,31.83
2022-07-26T06:38:50.077Z,31.52
2022-07-26T06:41:52.140Z,31.89
2022-07-26T06:44:54.127Z,31.50
2022-07-26T06:47:56.241Z,31.80
2022-07-26T06:50:58.257Z,31.93
2022-07-26T06:54:04.609Z,32.86
2022-07-26T06:57:06.712Z,32.05
2022-07-26T07:00:09.200Z,31.86
2022-07-26T07:03:11.037Z,30.81
2022-07-26T07:06:13.276Z,31.47
2022-07-26T07:09:15.387Z,31.66
2022-07-26T07:12:17.957Z,32.74
2022-07-26T07:15:19.916Z,33.41
2022-07-26T07:18:21.798Z,32.28
2022-07-26T07:21:23.668Z,32.26
2022-07-26T07:24:25.647Z,32.85
2022-07-26T07:27:28.171Z,32.40
2022-07-26T07:30:30.115Z,33.02
2022-07-26T07:33:43.597Z,32.75
2022-07-26T07:36:54.139Z,33.48
2022-07-26T07:39:56.505Z,32.99
2022-07-26T07:42:59.002Z,33.17
2022-07-26T07:46:00.978Z,34.37
2022-07-26T07:49:02.955Z,32.97
2022-07-26T07:52:05.823Z,34.93
2022-07-26T07:55:40.270Z,35.09
2022-07-26T07:58:30.443Z,34.80
2022-07-26T08:01:40.198Z,32.75
2022-07-26T08:04:43.066Z,34.39
2022-07-26T08:07:45.061Z,33.73
2022-07-26T08:10:52.012Z,33.59
2022-07-26T08:13:54.390Z,34.29
2022-07-26T08:16:57.090Z,34.73
2022-07-26T08:20:00.703Z,34.49
2022-07-26T08:23:02.833Z,32.91
2022-07-26T08:26:06.988Z,33.07
2022-07-26T08:29:09.063Z,32.28
2022-07-26T08:32:11.047Z,31.61
2022-07-26T08:35:17.397Z,32.42
2022-07-26T08:38:22.108Z,32.50
2022-07-26T08:41:25.348Z,32.13
2022-07-26T08:44:27.302Z,32.84
2022-07-26T08:47:35.476Z,31.83
2022-07-26T08:50:47.403Z,31.97
2022-07-26T08:53:49.796Z,33.68
2022-07-26T08:56:52.283Z,33.28
2022-07-26T09:00:12.888Z,32.81
2022-07-26T09:03:27.335Z,32.50
2022-07-26T09:06:29.437Z,32.20
2022-07-26T09:09:32.474Z,32.13
2022-07-26T09:12:34.853Z,32.94
2022-07-26T09:15:36.791Z,32.49
2022-07-26T09:18:38.689Z,33.66
2022-07-26T09:21:40.771Z,33.74
2022-07-26T09:24:44.332Z,33.04
2022-07-26T09:27:46.268Z,31.06
2022-07-26T09:30:52.815Z,32.19
2022-07-26T09:33:55.113Z,31.65
2022-07-26T09:36:57.022Z,32.01
2022-07-26T09:40:00.273Z,31.52
2022-07-26T09:43:06.256Z,30.23
2022-07-26T09:46:11.101Z,31.66
2022-07-26T09:49:17.183Z,30.40
2022-07-26T09:52:19.914Z,30.17
2022-07-26T09:55:21.982Z,29.99
2022-07-26T09:58:24.317Z,28.89
2022-07-26T10:01:26.280Z,28.60
2022-07-26T10:04:28.510Z,28.22
2022-07-26T10:07:30.484Z,27.41
2022-07-26T10:10:34.153Z,27.00
2022-07-26T10:13:38.266Z,26.20
2022-07-26T10:16:40.670Z,25.32
2022-07-26T10:19:45.719Z,25.24
2022-07-26T10:22:50.728Z,24.39
2022-07-26T10:25:52.920Z,24.23
2022-07-26T10:28:54.964Z,24.53
2022-07-26T10:32:03.049Z,24.19
2022-07-26T10:35:24.876Z,24.11
2022-07-26T10:38:27.210Z,23.98
2022-07-26T10:41:36.391Z,25.21
2022-07-26T10:44:42.694Z,25.04
2022-07-26T10:48:04.511Z,24.92
2022-07-26T10:51:06.638Z,25.13
2022-07-26T10:54:10.044Z,25.23
2022-07-26T10:57:12.506Z,25.71
2022-07-26T11:00:21.250Z,25.05
2022-07-26T11:03:23.332Z,25.05
2022-07-26T11:06:27.323Z,24.31
2022-07-26T11:09:33.869Z,25.33
2022-07-26T11:12:36.594Z,25.79
2022-07-26T11:15:48.963Z,26.02
2022-07-26T11:18:52.323Z,25.62
2022-07-26T11:21:55.352Z,25.01
2022-07-26T11:24:57.240Z,24.75
2022-07-26T11:28:00.137Z,25.06
2022-07-26T11:31:03.683Z,24.72
2022-07-26T11:34:06.589Z,25.00
2022-07-26T11:37:13.280Z,25.34
2022-07-26T11:40:15.144Z,25.93
2022-07-26T11:43:17.416Z,25.19
2022-07-26T11:46:19.574Z,25.14
2022-07-26T11:49:23.102Z,25.36
2022-07-26T11:52:33.396Z,26.02
2022-07-26T11:55:35.517Z,25.62
2022-07-26T11:58:39.746Z,25.76
2022-07-26T12:01:41.740Z,26.24
2022-07-26T12:05:09.711Z,25.87
2022-07-26T12:08:11.948Z,25.38
2022-07-26T12:11:14.467Z,25.96
2022-07-26T12:14:24.504Z,25.87
2022-07-26T12:17:26.739Z,25.20
2022-07-26T12:20:36.876Z,25.39
2022-07-26T12:23:42.940Z,25.24
2022-07-26T12:26:44.893Z,24.73
2022-07-26T12:29:48.068Z,25.45
2022-07-26T12:32:54.382Z,25.53
2022-07-26T12:36:03.657Z,25.62
2022-07-26T12:39:06.029Z,25.97
2022-07-26T12:42:21.467Z,25.26
2022-07-26T12:45:33.690Z,25.11
2022-07-26T12:48:37.378Z,26.22
2022-07-26T12:51:39.804Z,25.84
2022-07-26T12:54:41.948Z,26.12
2022-07-26T12:57:46.069Z,26.58
2022-07-26T13:00:49.616Z,26.15
2022-07-26T13:03:51.901Z,26.02
2022-07-26T13:06:54.083Z,25.81
2022-07-26T13:10:22.482Z,26.12
2022-07-26T13:13:17.986Z,26.55
2022-07-26T13:16:19.948Z,25.80
2022-07-26T13:19:22.017Z,26.20
2022-07-26T13:22:24.236Z,26.87
2022-07-26T13:25:29.066Z,26.64
2022-07-26T13:28:40.798Z,26.70
2022-07-26T13:31:43.027Z,27.93
2022-07-26T13:34:45.225Z,26.55
2022-07-26T13:37:47.485Z,26.46
2022-07-26T13:40:50.510Z,26.75
2022-07-26T13:43:54.107Z,26.93
2022-07-26T13:46:56.306Z,26.28
2022-07-26T13:49:58.295Z,25.96
2022-07-26T13:53:00.317Z,26.51
2022-07-26T13:56:02.707Z,26.24
2022-07-26T13:59:04.771Z,27.00
2022-07-26T14:02:07.411Z,27.51
2022-07-26T14:05:09.705Z,26.61
2022-07-26T14:08:11.854Z,27.01
2022-07-26T14:11:13.770Z,27.10
2022-07-26T14:14:15.880Z,26.14
2022-07-26T14:17:17.787Z,26.53
2022-07-26T14:20:20.276Z,26.95
2022-07-26T14:23:22.926Z,26.88
2022-07-26T14:26:25.861Z,26.67
2022-07-26T14:29:29.246Z,26.65
2022-07-26T14:32:31.119Z,28.05
2022-07-26T14:35:33.025Z,27.94
2022-07-26T14:38:34.943Z,27.42
2022-07-26T14:41:36.967Z,27.40
2022-07-26T14:44:44.466Z,27.90
2022-07-26T14:47:46.758Z,27.13
2022-07-26T14:51:08.757Z,28.25
2022-07-26T14:54:11.507Z,27.91
2022-07-26T14:57:13.739Z,27.83
2022-07-26T15:00:16.507Z,27.44
2022-07-26T15:03:18.333Z,28.00
2022-07-26T15:06:20.283Z,28.15
2022-07-26T15:09:22.116Z,27.67
2022-07-26T15:12:24.024Z,27.18
2022-07-26T15:15:26.154Z,27.62
2022-07-26T15:18:28.175Z,28.03
2022-07-26T15:21:30.029Z,27.86
2022-07-26T15:24:36.399Z,27.57
2022-07-26T15:27:41.350Z,27.54
2022-07-26T15:30:43.540Z,26.77
2022-07-26T15:33:45.406Z,27.79
2022-07-26T15:36:47.273Z,27.81
2022-07-26T15:39:49.260Z,27.69
2022-07-26T15:42:53.837Z,28.16
2022-07-26T15:45:57.629Z,27.48
2022-07-26T15:49:01.777Z,28.10
2022-07-26T15:52:04.365Z,27.75
2022-07-26T15:55:07.335Z,27.43
2022-07-26T15:58:09.154Z,26.96
2022-07-26T16:01:11.062Z,27.19
2022-07-26T16:04:13.459Z,27.31
2022-07-26T16:07:16.610Z,27.92
2022-07-26T16:10:18.652Z,27.59
2022-07-26T16:13:20.535Z,27.82
2022-07-26T16:16:22.691Z,27.14
2022-07-26T16:19:24.756Z,27.62
2022-07-26T16:22:26.572Z,27.65
2022-07-26T16:25:28.569Z,27.70
2022-07-26T16:28:30.458Z,28.11
2022-07-26T16:31:32.828Z,27.45
2022-07-26T16:34:34.874Z,27.98
2022-07-26T16:37:36.727Z,28.72
2022-07-26T16:40:38.619Z,27.61
2022-07-26T16:43:40.514Z,27.40
2022-07-26T16:46:42.556Z,26.74
2022-07-26T16:49:46.459Z,27.22
2022-07-26T16:52:48.361Z,27.26
2022-07-26T16:55:52.031Z,27.48
2022-07-26T16:58:53.935Z,27.27
2022-07-26T17:01:55.829Z,27.40
2022-07-26T17:05:01.532Z,27.37
2022-07-26T17:08:03.396Z,27.03
2022-07-26T17:11:05.470Z,26.67
2022-07-26T17:14:07.288Z,26.91
2022-07-26T17:17:09.136Z,27.49
2022-07-26T17:20:11.104Z,27.21
2022-07-26T17:23:12.955Z,27.31
2022-07-26T17:26:15.559Z,27.65
2022-07-26T17:29:17.459Z,27.39
2022-07-26T17:32:19.430Z,27.14
2022-07-26T17:35:21.405Z,26.78
2022-07-26T17:38:23.252Z,26.95
2022-07-26T17:41:32.667Z,26.70
2022-07-26T17:44:35.343Z,26.86
2022-07-26T17:47:37.338Z,26.31
2022-07-26T17:50:39.253Z,26.49
2022-07-26T17:53:42.825Z,26.88
2022-07-26T17:56:44.655Z,26.43
2022-07-26T17:59:46.573Z,26.64
2022-07-26T18:02:48.658Z,26.37
2022-07-26T18:05:51.040Z,26.42
2022-07-26T18:08:52.991Z,26.33
2022-07-26T18:11:54.923Z,26.60
2022-07-26T18:14:56.899Z,26.42
2022-07-26T18:17:58.741Z,26.09
2022-07-26T18:21:00.559Z,25.90
2022-07-26T18:24:16.295Z,25.94
2022-07-26T18:27:19.620Z,25.87
2022-07-26T18:30:21.640Z,26.47
2022-07-26T18:33:23.649Z,25.73
2022-07-26T18:36:28.339Z,25.86
2022-07-26T18:39:32.625Z,26.13
2022-07-26T18:42:36.753Z,25.32
2022-07-26T18:45:38.598Z,25.44
2022-07-26T18:48:41.798Z,26.02
2022-07-26T18:51:45.067Z,26.25
2022-07-26T18:54:50.482Z,25.31
2022-07-26T18:57:53.917Z,25.84
2022-07-26T19:00:55.869Z,25.44
2022-07-26T19:03:57.950Z,25.34
2022-07-26T19:07:00.344Z,24.85
2022-07-26T19:10:02.229Z,25.48
2022-07-26T19:13:04.148Z,25.28
2022-07-26T19:16:06.249Z,25.63
2022-07-26T19:19:08.237Z,25.19
2022-07-26T19:22:10.194Z,25.79
2022-07-26T19:25:14.600Z,25.05
2022-07-26T19:28:16.470Z,24.42
2022-07-26T19:31:18.439Z,24.63
2022-07-26T19:34:20.484Z,24.67
2022-07-26T19:37:22.765Z,24.56
2022-07-26T19:40:24.707Z,24.63
2022-07-26T19:43:26.543Z,25.46
2022-07-26T19:46:28.450Z,25.35
2022-07-26T19:49:30.510Z,24.99
2022-07-26T19:52:32.472Z,24.72
2022-07-26T19:55:34.328Z,25.35
2022-07-26T19:58:36.199Z,24.31
2022-07-26T20:01:38.133Z,24.78
2022-07-26T20:04:45.428Z,24.65
2022-07-26T20:07:49.903Z,24.27
2022-07-26T20:10:52.155Z,24.79
2022-07-26T20:13:55.324Z,23.87
2022-07-26T20:16:58.173Z,24.34
2022-07-26T20:20:00.183Z,24.81
2022-07-26T20:23:03.882Z,24.32
2022-07-26T20:26:05.790Z,24.90
2022-07-26T20:29:07.851Z,25.17
2022-07-26T20:32:09.963Z,24.91
2022-07-26T20:35:11.856Z,24.62
2022-07-26T20:38:13.891Z,24.72
2022-07-26T20:41:15.722Z,24.33
2022-07-26T20:44:26.256Z,24.36
2022-07-26T20:47:30.244Z,23.60
2022-07-26T20:50:32.151Z,23.62
2022-07-26T20:53:34.842Z,24.06
2022-07-26T20:56:37.447Z,24.17
2022-07-26T20:59:39.362Z,23.86
2022-07-26T21:02:41.352Z,23.54
2022-07-26T21:05:43.689Z,23.98
2022-07-26T21:08:45.589Z,23.99
2022-07-26T21:11:47.447Z,23.75
2022-07-26T21:14:49.843Z,23.07
2022-07-26T21:17:52.528Z,23.61
2022-07-26T21:20:54.423Z,24.10
2022-07-26T21:23:56.320Z,23.58
2022-07-26T21:26:58.140Z,24.18
2022-07-26T21:29:59.995Z,24.63
2022-07-26T21:33:01.826Z,23.92
2022-07-26T21:36:03.850Z,23.25
2022-07-26T21:39:06.724Z,23.47
2022-07-26T21:42:08.646Z,23.40
2022-07-26T21:45:10.562Z,23.67
2022-07-26T21:48:12.533Z,24.00
2022-07-26T21:51:14.418Z,23.27
2022-07-26T21:54:16.282Z,23.29
2022-07-26T21:57:18.151Z,23.40
2022-07-26T22:00:20.079Z,23.25
2022-07-26T22:03:21.916Z,23.18
2022-07-26T22:06:23.754Z,23.40
2022-07-26T22:09:25.620Z,23.00
2022-07-26T22:12:28.120Z,23.34
2022-07-26T22:15:30.137Z,23.85
2022-07-26T22:18:31.957Z,22.86
2022-07-26T22:21:33.898Z,23.06
2022-07-26T22:24:35.885Z,23.11
2022-07-26T22:27:37.845Z,23.07
2022-07-26T22:30:39.949Z,22.69
2022-07-26T22:33:41.887Z,22.97
2022-07-26T22:36:45.609Z,23.06
2022-07-26T22:39:47.574Z,22.89
2022-07-26T22:42:49.735Z,22.97
2022-07-26T22:45:51.720Z,23.05
2022-07-26T22:48:53.693Z,23.11
2022-07-26T22:51:55.689Z,22.76
2022-07-26T22:54:57.517Z,22.85
2022-07-26T22:57:59.652Z,23.42
2022-07-26T23:01:01.646Z,22.87
2022-07-26T23:04:05.030Z,22.84
2022-07-26T23:07:08.078Z,22.73
2022-07-26T23:10:11.027Z,23.16
2022-07-26T23:13:16.292Z,22.99
2022-07-26T23:16:18.348Z,23.05
2022-07-26T23:19:23.600Z,22.98
2022-07-26T23:22:25.481Z,23.03
2022-07-26T23:25:27.420Z,22.94
2022-07-26T23:28:37.666Z,22.71
2022-07-26T23:31:40.141Z,22.93
2022-07-26T23:34:42.072Z,22.66
2022-07-26T23:37:43.903Z,22.38
2022-07-26T23:40:45.711Z,22.62
2022-07-26T23:43:47.642Z,23.10
2022-07-26T23:46:49.540Z,22.77
2022-07-26T23:49:51.417Z,23.04
2022-07-26T23:52:53.263Z,22.86
2022-07-26T23:55:55.174Z,23.58
2022-07-26T23:58:57.039Z,22.88
